createdAt,value
2018-02-27T00:00:17.100Z,0.00
2018-02-27T00:01:22.602Z,0.00
2018-02-27T00:02:28.104Z,0.00
2018-02-27T00:03:33.603Z,0.00
2018-02-27T00:04:39.119Z,0.00
2018-02-27T00:05:44.604Z,0.00
2018-02-27T00:06:50.271Z,0.00
2018-02-27T00:07:55.693Z,0.00
2018-02-27T00:09:01.113Z,0.00
2018-02-27T00:10:06.642Z,0.00
2018-02-27T00:11:12.135Z,0.00
2018-02-27T00:12:17.660Z,0.00
2018-02-27T00:13:23.115Z,0.00
2018-02-27T00:14:28.618Z,0.00
2018-02-27T00:15:34.119Z,0.00
2018-02-27T00:16:39.620Z,0.00
2018-02-27T00:17:45.115Z,0.00
2018-02-27T00:18:50.615Z,0.00
2018-02-27T00:19:56.134Z,0.00
2018-02-27T00:21:01.626Z,0.00
2018-02-27T00:22:07.208Z,0.00
2018-02-27T00:23:12.623Z,0.00
2018-02-27T00:24:18.120Z,0.00
2018-02-27T00:25:23.621Z,0.00
2018-02-27T00:26:29.123Z,0.00
2018-02-27T00:27:34.624Z,0.00
2018-02-27T00:28:40.140Z,0.00
2018-02-27T00:29:45.622Z,0.00
2018-02-27T00:30:51.170Z,0.00
2018-02-27T00:31:56.646Z,0.00
2018-02-27T00:33:02.127Z,0.00
2018-02-27T00:34:07.634Z,0.00
2018-02-27T00:35:13.124Z,0.00
2018-02-27T00:36:18.623Z,0.00
2018-02-27T00:37:24.153Z,0.00
2018-02-27T00:38:29.633Z,0.00
2018-02-27T00:39:35.130Z,0.00
2018-02-27T00:40:40.641Z,0.00
2018-02-27T00:41:46.138Z,0.00
2018-02-27T00:42:51.634Z,0.00
2018-02-27T00:43:57.197Z,0.00
2018-02-27T00:45:02.834Z,0.00
2018-02-27T00:46:08.216Z,0.00
2018-02-27T00:47:13.648Z,0.00
2018-02-27T00:48:19.140Z,0.00
2018-02-27T00:49:24.686Z,0.00
2018-02-27T00:50:30.138Z,0.00
2018-02-27T00:51:35.848Z,0.00
2018-02-27T00:52:41.141Z,0.00
2018-02-27T00:53:46.678Z,0.00
2018-02-27T00:54:52.307Z,0.00
2018-02-27T00:55:57.648Z,0.00
2018-02-27T00:57:03.331Z,0.00
2018-02-27T00:58:08.786Z,0.00
2018-02-27T00:59:14.278Z,0.00
2018-02-27T01:00:19.816Z,0.00
2018-02-27T01:01:25.156Z,0.00
2018-02-27T01:02:30.667Z,0.00
2018-02-27T01:03:36.150Z,0.00
2018-02-27T01:04:41.647Z,0.00
2018-02-27T01:05:47.165Z,0.00
2018-02-27T01:06:52.653Z,0.00
2018-02-27T01:07:58.152Z,0.00
2018-02-27T01:09:03.645Z,0.00
2018-02-27T01:10:09.232Z,0.00
2018-02-27T01:11:14.648Z,0.00
2018-02-27T01:12:20.229Z,0.00
2018-02-27T01:13:25.689Z,0.00
2018-02-27T01:14:31.155Z,0.00
2018-02-27T01:15:36.656Z,0.00
2018-02-27T01:16:42.240Z,0.00
2018-02-27T01:17:47.665Z,0.00
2018-02-27T01:18:53.160Z,0.00
2018-02-27T01:19:58.956Z,0.00
2018-02-27T01:21:04.160Z,0.00
2018-02-27T01:22:09.818Z,0.00
2018-02-27T01:23:15.155Z,0.00
2018-02-27T01:24:20.673Z,0.00
2018-02-27T01:25:26.158Z,0.00
2018-02-27T01:26:31.657Z,0.00
2018-02-27T01:27:37.178Z,0.00
2018-02-27T01:28:42.668Z,0.00
2018-02-27T01:29:48.699Z,0.00
2018-02-27T01:30:53.665Z,0.00
2018-02-27T01:31:59.165Z,0.00
2018-02-27T01:33:04.665Z,0.00
2018-02-27T01:34:10.165Z,0.00
2018-02-27T01:35:15.662Z,0.00
2018-02-27T01:36:21.327Z,0.00
2018-02-27T01:37:26.665Z,0.00
2018-02-27T01:38:32.164Z,0.00
2018-02-27T01:39:37.670Z,0.00
2018-02-27T01:40:43.208Z,0.00
2018-02-27T01:41:48.665Z,0.00
2018-02-27T01:42:54.174Z,0.00
2018-02-27T01:43:59.674Z,0.00
2018-02-27T01:45:05.167Z,0.00
2018-02-27T01:46:10.675Z,0.00
2018-02-27T01:47:16.166Z,0.00
2018-02-27T01:48:21.674Z,0.00
2018-02-27T01:49:27.182Z,0.00
2018-02-27T01:50:32.718Z,0.00
2018-02-27T01:51:38.178Z,0.00
2018-02-27T01:52:43.668Z,0.00
2018-02-27T01:53:49.224Z,0.00
2018-02-27T01:54:54.676Z,0.00
2018-02-27T01:56:00.202Z,0.00
2018-02-27T01:57:05.674Z,0.00
2018-02-27T01:58:11.168Z,0.00
2018-02-27T01:59:16.683Z,0.00
2018-02-27T02:00:22.174Z,0.00
2018-02-27T02:01:27.677Z,0.00
2018-02-27T02:02:33.182Z,0.00
2018-02-27T02:03:38.677Z,0.00
2018-02-27T02:04:44.172Z,0.00
2018-02-27T02:05:49.677Z,0.00
2018-02-27T02:06:55.186Z,0.00
2018-02-27T02:08:00.682Z,0.00
2018-02-27T02:09:06.175Z,0.00
2018-02-27T02:10:11.695Z,0.00
2018-02-27T02:11:17.183Z,0.00
2018-02-27T02:12:22.675Z,0.00
2018-02-27T02:13:28.184Z,0.00
2018-02-27T02:14:33.678Z,0.00
2018-02-27T02:15:39.214Z,0.00
2018-02-27T02:16:44.675Z,0.00
2018-02-27T02:17:50.180Z,0.00
2018-02-27T02:18:55.683Z,0.00
2018-02-27T02:20:01.180Z,0.00
2018-02-27T02:21:06.761Z,0.00
2018-02-27T02:22:12.214Z,0.00
2018-02-27T02:23:17.674Z,0.00
2018-02-27T02:24:23.177Z,0.00
2018-02-27T02:25:28.673Z,0.00
2018-02-27T02:26:34.179Z,0.00
2018-02-27T02:27:39.684Z,0.00
2018-02-27T02:28:45.174Z,0.00
2018-02-27T02:29:50.813Z,0.00
2018-02-27T02:30:56.244Z,0.00
2018-02-27T02:32:01.689Z,0.00
2018-02-27T02:33:07.229Z,0.00
2018-02-27T02:34:12.691Z,0.00
2018-02-27T02:35:18.197Z,0.00
2018-02-27T02:36:23.685Z,0.00
2018-02-27T02:37:29.183Z,0.00
2018-02-27T02:38:34.692Z,0.00
2018-02-27T02:39:40.186Z,0.00
2018-02-27T02:40:45.743Z,0.00
2018-02-27T02:41:51.184Z,0.00
2018-02-27T02:42:56.682Z,0.00
2018-02-27T02:44:02.196Z,0.00
2018-02-27T02:45:07.684Z,0.00
2018-02-27T02:46:13.183Z,0.00
2018-02-27T02:47:18.696Z,0.00
2018-02-27T02:48:24.192Z,0.00
2018-02-27T02:49:29.740Z,0.00
2018-02-27T02:50:35.186Z,0.00
2018-02-27T02:51:40.687Z,0.00
2018-02-27T02:52:46.187Z,0.00
2018-02-27T02:53:51.738Z,0.00
2018-02-27T02:54:57.193Z,0.00
2018-02-27T02:56:02.686Z,0.00
2018-02-27T02:57:08.297Z,0.00
2018-02-27T02:58:13.696Z,0.00
2018-02-27T02:59:19.191Z,0.00
2018-02-27T03:00:24.688Z,0.00
2018-02-27T03:01:30.185Z,0.00
2018-02-27T03:02:35.686Z,0.00
2018-02-27T03:03:41.185Z,0.00
2018-02-27T03:04:46.693Z,0.00
2018-02-27T03:05:52.186Z,0.00
2018-02-27T03:06:57.692Z,0.00
2018-02-27T03:08:03.188Z,0.00
2018-02-27T03:09:08.688Z,0.00
2018-02-27T03:10:14.197Z,0.00
2018-02-27T03:11:19.698Z,0.00
2018-02-27T03:12:25.187Z,0.00
2018-02-27T03:13:30.694Z,0.00
2018-02-27T03:14:36.190Z,0.00
2018-02-27T03:15:41.704Z,0.00
2018-02-27T03:16:47.189Z,0.00
2018-02-27T03:17:52.696Z,0.00
2018-02-27T03:18:58.200Z,0.00
2018-02-27T03:20:03.692Z,0.00
2018-02-27T03:21:09.189Z,0.00
2018-02-27T03:22:14.699Z,0.00
2018-02-27T03:23:20.191Z,0.00
2018-02-27T03:24:25.696Z,0.00
2018-02-27T03:25:31.192Z,0.00
2018-02-27T03:26:36.697Z,0.00
2018-02-27T03:27:42.192Z,0.00
2018-02-27T03:28:47.690Z,0.00
2018-02-27T03:29:53.197Z,0.00
2018-02-27T03:30:58.706Z,0.00
2018-02-27T03:32:04.193Z,0.00
2018-02-27T03:33:09.696Z,0.00
2018-02-27T03:34:15.200Z,0.00
2018-02-27T03:35:20.693Z,0.00
2018-02-27T03:36:26.199Z,0.00
2018-02-27T03:37:31.698Z,0.00
2018-02-27T03:38:37.195Z,0.00
2018-02-27T03:39:42.724Z,0.00
2018-02-27T03:40:48.196Z,0.00
2018-02-27T03:41:53.694Z,0.00
2018-02-27T03:42:59.237Z,0.00
2018-02-27T03:44:04.706Z,0.00
2018-02-27T03:45:10.219Z,0.00
2018-02-27T03:46:15.700Z,0.00
2018-02-27T03:47:21.194Z,0.00
2018-02-27T03:48:26.697Z,0.00
2018-02-27T03:49:32.215Z,0.00
2018-02-27T03:50:37.699Z,0.00
2018-02-27T03:51:43.194Z,0.00
2018-02-27T03:52:48.695Z,0.00
2018-02-27T03:53:54.194Z,0.00
2018-02-27T03:54:59.701Z,0.00
2018-02-27T03:56:05.201Z,0.00
2018-02-27T03:57:10.710Z,0.00
2018-02-27T03:58:16.198Z,0.00
2018-02-27T03:59:21.712Z,0.00
2018-02-27T04:00:27.194Z,0.00
2018-02-27T04:01:32.694Z,0.00
2018-02-27T04:02:38.201Z,0.00
2018-02-27T04:03:43.702Z,0.00
2018-02-27T04:04:49.202Z,0.00
2018-02-27T04:05:54.698Z,0.00
2018-02-27T04:07:00.198Z,0.00
2018-02-27T04:08:05.697Z,0.00
2018-02-27T04:09:11.206Z,0.00
2018-02-27T04:10:16.698Z,0.00
2018-02-27T04:11:22.202Z,0.00
2018-02-27T04:12:27.696Z,0.00
2018-02-27T04:13:33.203Z,0.00
2018-02-27T04:14:38.696Z,0.00
2018-02-27T04:15:44.196Z,0.00
2018-02-27T04:16:49.720Z,0.00
2018-02-27T04:17:55.196Z,0.00
2018-02-27T04:19:00.700Z,0.00
2018-02-27T04:20:06.196Z,0.00
2018-02-27T04:21:11.700Z,0.00
2018-02-27T04:22:17.201Z,0.00
2018-02-27T04:23:22.700Z,0.00
2018-02-27T04:24:28.211Z,0.00
2018-02-27T04:25:33.701Z,0.00
2018-02-27T04:26:39.198Z,0.00
2018-02-27T04:27:44.702Z,0.00
2018-02-27T04:28:50.201Z,0.00
2018-02-27T04:29:55.702Z,0.00
2018-02-27T04:31:01.204Z,0.00
2018-02-27T04:32:06.695Z,0.00
2018-02-27T04:33:12.199Z,0.00
2018-02-27T04:34:17.697Z,0.00
2018-02-27T04:35:23.200Z,0.00
2018-02-27T04:36:28.702Z,0.00
2018-02-27T04:37:34.200Z,0.00
2018-02-27T04:38:39.709Z,0.00
2018-02-27T04:39:45.202Z,0.00
2018-02-27T04:40:50.699Z,0.00
2018-02-27T04:41:56.202Z,0.00
2018-02-27T04:43:01.700Z,0.00
2018-02-27T04:44:07.198Z,0.00
2018-02-27T04:45:12.699Z,0.00
2018-02-27T04:46:18.195Z,0.00
2018-02-27T04:47:23.702Z,0.00
2018-02-27T04:48:29.224Z,0.00
2018-02-27T04:49:34.694Z,0.00
2018-02-27T04:50:40.197Z,0.00
2018-02-27T04:51:45.703Z,0.00
2018-02-27T04:52:51.197Z,0.00
2018-02-27T04:53:56.710Z,0.00
2018-02-27T04:55:02.207Z,0.00
2018-02-27T04:56:07.705Z,0.00
2018-02-27T04:57:13.206Z,0.00
2018-02-27T04:58:18.695Z,0.00
2018-02-27T04:59:24.196Z,0.00
2018-02-27T05:00:29.695Z,0.00
2018-02-27T05:01:35.196Z,0.00
2018-02-27T05:02:40.706Z,0.00
2018-02-27T05:03:46.236Z,0.00
2018-02-27T05:04:51.717Z,0.00
2018-02-27T05:05:57.193Z,0.00
2018-02-27T05:07:02.696Z,0.00
2018-02-27T05:08:08.195Z,0.00
2018-02-27T05:09:13.694Z,0.00
2018-02-27T05:10:19.194Z,0.00
2018-02-27T05:11:24.698Z,0.00
2018-02-27T05:12:30.197Z,0.00
2018-02-27T05:13:35.695Z,0.00
2018-02-27T05:14:41.197Z,0.00
2018-02-27T05:15:46.695Z,0.00
2018-02-27T05:16:52.202Z,0.00
2018-02-27T05:17:57.694Z,0.00
2018-02-27T05:19:03.199Z,0.00
2018-02-27T05:20:08.715Z,0.00
2018-02-27T05:21:14.380Z,0.00
2018-02-27T05:22:19.693Z,0.00
2018-02-27T05:23:25.189Z,0.00
2018-02-27T05:24:30.711Z,0.00
2018-02-27T05:25:36.191Z,0.00
2018-02-27T05:26:41.694Z,0.00
2018-02-27T05:27:47.195Z,0.00
2018-02-27T05:28:52.766Z,0.00
2018-02-27T05:29:58.192Z,0.00
2018-02-27T05:31:03.693Z,0.00
2018-02-27T05:32:09.191Z,0.00
2018-02-27T05:33:14.687Z,0.00
2018-02-27T05:34:20.194Z,0.00
2018-02-27T05:35:25.699Z,0.00
2018-02-27T05:36:31.195Z,0.00
2018-02-27T05:37:36.693Z,0.00
2018-02-27T05:38:42.198Z,0.00
2018-02-27T05:39:47.689Z,0.00
2018-02-27T05:40:53.216Z,0.00
2018-02-27T05:41:58.693Z,0.00
2018-02-27T05:43:04.193Z,0.00
2018-02-27T05:44:09.686Z,0.00
2018-02-27T05:45:15.187Z,0.00
2018-02-27T05:46:20.681Z,0.00
2018-02-27T05:47:26.185Z,0.00
2018-02-27T05:48:31.688Z,0.00
2018-02-27T05:49:37.187Z,0.00
2018-02-27T05:50:42.682Z,0.00
2018-02-27T05:51:48.182Z,0.00
2018-02-27T05:52:53.683Z,0.00
2018-02-27T05:53:59.191Z,0.00
2018-02-27T05:55:04.683Z,0.00
2018-02-27T05:56:10.188Z,0.00
2018-02-27T05:57:15.696Z,0.00
2018-02-27T05:58:21.186Z,24.00
2018-02-27T05:59:26.688Z,24.00
2018-02-27T06:00:32.181Z,24.00
2018-02-27T06:01:37.686Z,20.00
2018-02-27T06:02:43.186Z,24.00
2018-02-27T06:03:48.682Z,24.00
2018-02-27T06:04:54.223Z,4.00
2018-02-27T06:05:59.695Z,4.00
2018-02-27T06:07:05.179Z,4.00
2018-02-27T06:08:10.680Z,4.00
2018-02-27T06:09:16.179Z,4.00
2018-02-27T06:10:21.684Z,8.00
2018-02-27T06:11:27.184Z,8.00
2018-02-27T06:12:32.679Z,8.00
2018-02-27T06:13:38.172Z,8.00
2018-02-27T06:14:43.672Z,16.00
2018-02-27T06:15:49.187Z,16.00
2018-02-27T06:16:54.675Z,12.00
2018-02-27T06:18:00.176Z,16.00
2018-02-27T06:19:05.675Z,20.00
2018-02-27T06:20:11.185Z,24.00
2018-02-27T06:21:16.677Z,24.00
2018-02-27T06:22:22.172Z,28.00
2018-02-27T06:23:27.674Z,32.00
2018-02-27T06:24:33.174Z,36.00
2018-02-27T06:25:38.675Z,36.00
2018-02-27T06:26:44.171Z,44.00
2018-02-27T06:27:49.682Z,44.00
2018-02-27T06:28:55.167Z,48.00
2018-02-27T06:30:00.668Z,52.00
2018-02-27T06:31:06.173Z,56.00
2018-02-27T06:32:11.675Z,60.00
2018-02-27T06:33:17.170Z,64.00
2018-02-27T06:34:22.667Z,68.00
2018-02-27T06:35:28.166Z,72.00
2018-02-27T06:36:33.670Z,76.00
2018-02-27T06:37:39.175Z,80.00
2018-02-27T06:38:44.695Z,84.00
2018-02-27T06:39:50.167Z,92.00
2018-02-27T06:40:55.671Z,96.00
2018-02-27T06:42:01.163Z,104.00
2018-02-27T06:43:06.667Z,108.00
2018-02-27T06:44:12.220Z,108.00
2018-02-27T06:45:17.677Z,116.00
2018-02-27T06:46:23.173Z,124.00
2018-02-27T06:47:28.665Z,128.00
2018-02-27T06:48:34.164Z,132.00
2018-02-27T06:49:39.665Z,136.00
2018-02-27T06:50:45.169Z,144.00
2018-02-27T06:51:50.665Z,144.00
2018-02-27T06:52:56.164Z,148.00
2018-02-27T06:54:01.663Z,148.00
2018-02-27T06:55:07.165Z,152.00
2018-02-27T06:56:12.665Z,156.00
2018-02-27T06:57:18.167Z,160.00
2018-02-27T06:58:23.660Z,164.00
2018-02-27T06:59:29.175Z,136.00
2018-02-27T07:00:34.664Z,168.00
2018-02-27T07:01:40.167Z,176.00
2018-02-27T07:02:45.660Z,184.00
2018-02-27T07:03:51.165Z,184.00
2018-02-27T07:04:56.662Z,192.00
2018-02-27T07:06:02.167Z,196.00
2018-02-27T07:07:07.667Z,200.00
2018-02-27T07:08:13.180Z,208.00
2018-02-27T07:09:18.665Z,212.00
2018-02-27T07:10:24.158Z,208.00
2018-02-27T07:11:29.694Z,216.00
2018-02-27T07:12:35.161Z,220.00
2018-02-27T07:13:40.662Z,224.00
2018-02-27T07:14:46.166Z,224.00
2018-02-27T07:15:51.665Z,232.00
2018-02-27T07:16:57.161Z,232.00
2018-02-27T07:18:02.659Z,232.00
2018-02-27T07:19:08.164Z,232.00
2018-02-27T07:20:13.661Z,232.00
2018-02-27T07:21:19.161Z,168.00
2018-02-27T07:22:24.667Z,236.00
2018-02-27T07:23:30.162Z,216.00
2018-02-27T07:24:35.657Z,216.00
2018-02-27T07:25:41.161Z,252.00
2018-02-27T07:26:46.657Z,196.00
2018-02-27T07:27:52.171Z,212.00
2018-02-27T07:28:57.669Z,256.00
2018-02-27T07:30:03.158Z,288.00
2018-02-27T07:31:08.676Z,268.00
2018-02-27T07:32:14.166Z,268.00
2018-02-27T07:33:19.669Z,280.00
2018-02-27T07:34:25.168Z,292.00
2018-02-27T07:35:30.661Z,288.00
2018-02-27T07:36:36.158Z,284.00
2018-02-27T07:37:41.659Z,288.00
2018-02-27T07:38:47.171Z,296.00
2018-02-27T07:39:52.661Z,296.00
2018-02-27T07:40:58.164Z,300.00
2018-02-27T07:42:03.655Z,300.00
2018-02-27T07:43:09.154Z,308.00
2018-02-27T07:44:14.659Z,300.00
2018-02-27T07:45:20.154Z,288.00
2018-02-27T07:46:25.656Z,292.00
2018-02-27T07:47:31.154Z,300.00
2018-02-27T07:48:36.661Z,300.00
2018-02-27T07:49:42.165Z,304.00
2018-02-27T07:50:47.664Z,304.00
2018-02-27T07:51:53.152Z,308.00
2018-02-27T07:52:58.946Z,308.00
2018-02-27T07:54:04.180Z,312.00
2018-02-27T07:55:09.771Z,312.00
2018-02-27T07:56:15.214Z,312.00
2018-02-27T07:57:20.665Z,320.00
2018-02-27T07:58:26.152Z,324.00
2018-02-27T07:59:31.658Z,324.00
2018-02-27T08:00:37.150Z,324.00
2018-02-27T08:01:42.656Z,324.00
2018-02-27T08:02:48.156Z,332.00
2018-02-27T08:03:53.651Z,336.00
2018-02-27T08:04:59.177Z,340.00
2018-02-27T08:06:04.661Z,344.00
2018-02-27T08:07:10.149Z,344.00
2018-02-27T08:08:15.656Z,360.00
2018-02-27T08:09:21.149Z,368.00
2018-02-27T08:10:26.654Z,384.00
2018-02-27T08:11:32.153Z,408.00
2018-02-27T08:12:37.647Z,440.00
2018-02-27T08:13:43.146Z,460.00
2018-02-27T08:14:48.650Z,472.00
2018-02-27T08:15:54.154Z,476.00
2018-02-27T08:16:59.647Z,468.00
2018-02-27T08:18:05.149Z,472.00
2018-02-27T08:19:10.655Z,496.00
2018-02-27T08:20:16.145Z,508.00
2018-02-27T08:21:21.681Z,524.00
2018-02-27T08:22:27.153Z,524.00
2018-02-27T08:23:32.657Z,496.00
2018-02-27T08:24:38.143Z,468.00
2018-02-27T08:25:43.650Z,428.00
2018-02-27T08:26:49.204Z,408.00
2018-02-27T08:27:54.650Z,404.00
2018-02-27T08:29:00.154Z,388.00
2018-02-27T08:30:05.662Z,388.00
2018-02-27T08:31:11.144Z,392.00
2018-02-27T08:32:16.651Z,368.00
2018-02-27T08:33:22.152Z,396.00
2018-02-27T08:34:27.643Z,392.00
2018-02-27T08:35:33.145Z,400.00
2018-02-27T08:36:38.646Z,392.00
2018-02-27T08:37:44.150Z,388.00
2018-02-27T08:38:49.649Z,392.00
2018-02-27T08:39:55.157Z,392.00
2018-02-27T08:41:00.654Z,396.00
2018-02-27T08:42:06.164Z,404.00
2018-02-27T08:43:11.647Z,408.00
2018-02-27T08:44:17.180Z,408.00
2018-02-27T08:45:22.645Z,408.00
2018-02-27T08:46:28.149Z,408.00
2018-02-27T08:47:33.646Z,348.00
2018-02-27T08:48:39.152Z,412.00
2018-02-27T08:49:44.649Z,416.00
2018-02-27T08:50:50.151Z,412.00
2018-02-27T08:51:55.650Z,412.00
2018-02-27T08:53:01.152Z,420.00
2018-02-27T08:54:06.648Z,420.00
2018-02-27T08:55:12.156Z,428.00
2018-02-27T08:56:17.655Z,428.00
2018-02-27T08:57:23.154Z,432.00
2018-02-27T08:58:28.652Z,436.00
2018-02-27T08:59:34.151Z,436.00
2018-02-27T09:00:39.654Z,444.00
2018-02-27T09:01:45.151Z,440.00
2018-02-27T09:02:50.651Z,412.00
2018-02-27T09:03:56.148Z,452.00
2018-02-27T09:05:01.654Z,456.00
2018-02-27T09:06:07.156Z,460.00
2018-02-27T09:07:12.655Z,472.00
2018-02-27T09:08:18.153Z,476.00
2018-02-27T09:09:23.653Z,488.00
2018-02-27T09:10:29.153Z,492.00
2018-02-27T09:11:34.664Z,488.00
2018-02-27T09:12:40.159Z,488.00
2018-02-27T09:13:45.658Z,488.00
2018-02-27T09:14:51.161Z,516.00
2018-02-27T09:15:56.660Z,520.00
2018-02-27T09:17:02.156Z,508.00
2018-02-27T09:18:07.657Z,508.00
2018-02-27T09:19:13.244Z,512.00
2018-02-27T09:20:18.668Z,512.00
2018-02-27T09:21:24.159Z,520.00
2018-02-27T09:22:29.668Z,512.00
2018-02-27T09:23:35.178Z,524.00
2018-02-27T09:24:40.666Z,516.00
2018-02-27T09:25:46.164Z,520.00
2018-02-27T09:26:51.672Z,516.00
2018-02-27T09:27:57.175Z,512.00
2018-02-27T09:29:02.667Z,512.00
2018-02-27T09:30:08.161Z,516.00
2018-02-27T09:31:13.673Z,520.00
2018-02-27T09:32:19.165Z,516.00
2018-02-27T09:33:24.676Z,516.00
2018-02-27T09:34:30.170Z,520.00
2018-02-27T09:35:35.798Z,520.00
2018-02-27T09:36:41.171Z,520.00
2018-02-27T09:37:46.667Z,520.00
2018-02-27T09:38:52.191Z,524.00
2018-02-27T09:39:57.688Z,524.00
2018-02-27T09:41:03.177Z,528.00
2018-02-27T09:42:08.670Z,532.00
2018-02-27T09:43:14.173Z,528.00
2018-02-27T09:44:19.680Z,532.00
2018-02-27T09:45:25.175Z,532.00
2018-02-27T09:46:30.684Z,536.00
2018-02-27T09:47:36.178Z,536.00
2018-02-27T09:48:41.681Z,536.00
2018-02-27T09:49:47.203Z,536.00
2018-02-27T09:50:52.690Z,540.00
2018-02-27T09:51:58.200Z,540.00
2018-02-27T09:53:03.688Z,544.00
2018-02-27T09:54:09.193Z,544.00
2018-02-27T09:55:14.687Z,548.00
2018-02-27T09:56:20.223Z,552.00
2018-02-27T09:57:25.695Z,552.00
2018-02-27T09:58:31.193Z,552.00
2018-02-27T09:59:36.708Z,552.00
2018-02-27T10:00:42.200Z,552.00
2018-02-27T10:01:47.703Z,556.00
2018-02-27T10:02:53.732Z,552.00
2018-02-27T10:03:58.710Z,556.00
2018-02-27T10:05:04.201Z,560.00
2018-02-27T10:06:09.706Z,556.00
2018-02-27T10:07:15.215Z,560.00
2018-02-27T10:08:20.706Z,560.00
2018-02-27T10:09:26.214Z,560.00
2018-02-27T10:10:31.704Z,564.00
2018-02-27T10:11:37.213Z,568.00
2018-02-27T10:12:42.724Z,572.00
2018-02-27T10:13:48.215Z,580.00
2018-02-27T10:14:53.725Z,576.00
2018-02-27T10:15:59.225Z,580.00
2018-02-27T10:17:04.719Z,576.00
2018-02-27T10:18:10.229Z,584.00
2018-02-27T10:19:15.723Z,584.00
2018-02-27T10:20:21.220Z,592.00
2018-02-27T10:21:26.725Z,596.00
2018-02-27T10:22:32.221Z,604.00
2018-02-27T10:23:37.729Z,612.00
2018-02-27T10:24:43.221Z,608.00
2018-02-27T10:25:48.732Z,616.00
2018-02-27T10:26:54.243Z,620.00
2018-02-27T10:27:59.744Z,620.00
2018-02-27T10:29:05.239Z,624.00
2018-02-27T10:30:10.735Z,632.00
2018-02-27T10:31:16.241Z,632.00
2018-02-27T10:32:21.739Z,636.00
2018-02-27T10:33:27.264Z,640.00
2018-02-27T10:34:32.747Z,640.00
2018-02-27T10:35:38.253Z,644.00
2018-02-27T10:36:44.109Z,652.00
2018-02-27T10:37:49.283Z,660.00
2018-02-27T10:38:54.766Z,668.00
2018-02-27T10:40:00.250Z,684.00
2018-02-27T10:41:05.767Z,684.00
2018-02-27T10:42:11.256Z,700.00
2018-02-27T10:43:16.750Z,716.00
2018-02-27T10:44:22.264Z,760.00
2018-02-27T10:45:27.765Z,752.00
2018-02-27T10:46:33.263Z,768.00
2018-02-27T10:47:38.822Z,764.00
2018-02-27T10:48:44.260Z,780.00
2018-02-27T10:49:49.821Z,816.00
2018-02-27T10:50:55.281Z,776.00
2018-02-27T10:52:00.776Z,776.00
2018-02-27T10:53:06.280Z,764.00
2018-02-27T10:54:11.774Z,780.00
2018-02-27T10:55:17.276Z,800.00
2018-02-27T10:56:22.811Z,820.00
2018-02-27T10:57:28.276Z,848.00
2018-02-27T10:58:33.789Z,856.00
2018-02-27T10:59:39.277Z,872.00
2018-02-27T11:00:44.799Z,944.00
2018-02-27T11:01:50.298Z,896.00
2018-02-27T11:02:55.786Z,1016.00
2018-02-27T11:04:01.288Z,908.00
2018-02-27T11:05:06.794Z,904.00
2018-02-27T11:06:12.295Z,904.00
2018-02-27T11:07:17.793Z,976.00
2018-02-27T11:08:23.303Z,924.00
2018-02-27T11:09:28.806Z,980.00
2018-02-27T11:10:34.305Z,956.00
2018-02-27T11:11:39.801Z,644.00
2018-02-27T11:12:45.305Z,1104.00
2018-02-27T11:13:50.806Z,1192.00
2018-02-27T11:14:56.314Z,932.00
2018-02-27T11:16:02.695Z,1032.00
2018-02-27T11:17:07.320Z,1048.00
2018-02-27T11:18:12.820Z,1140.00
2018-02-27T11:19:18.323Z,832.00
2018-02-27T11:20:23.828Z,1184.00
2018-02-27T11:21:29.330Z,1196.00
2018-02-27T11:22:34.830Z,1332.00
2018-02-27T11:23:40.428Z,1044.00
2018-02-27T11:24:45.828Z,1264.00
2018-02-27T11:25:51.343Z,1344.00
2018-02-27T11:26:56.843Z,1152.00
2018-02-27T11:28:02.363Z,1188.00
2018-02-27T11:29:07.845Z,868.00
2018-02-27T11:30:13.351Z,1224.00
2018-02-27T11:31:18.857Z,1140.00
2018-02-27T11:32:24.571Z,744.00
2018-02-27T11:33:29.863Z,976.00
2018-02-27T11:34:35.361Z,1176.00
2018-02-27T11:35:40.865Z,1060.00
2018-02-27T11:36:46.374Z,676.00
2018-02-27T11:37:52.058Z,1124.00
2018-02-27T11:38:57.393Z,1200.00
2018-02-27T11:40:02.878Z,1220.00
2018-02-27T11:41:08.518Z,884.00
2018-02-27T11:42:13.882Z,1116.00
2018-02-27T11:43:19.381Z,1164.00
2018-02-27T11:44:24.882Z,712.00
2018-02-27T11:45:30.393Z,920.00
2018-02-27T11:46:35.995Z,1192.00
2018-02-27T11:47:41.395Z,1164.00
2018-02-27T11:48:46.894Z,1080.00
2018-02-27T11:49:52.396Z,1192.00
2018-02-27T11:50:57.898Z,804.00
2018-02-27T11:52:03.419Z,1128.00
2018-02-27T11:53:08.921Z,1484.00
2018-02-27T11:54:14.543Z,1720.00
2018-02-27T11:55:19.932Z,1604.00
2018-02-27T11:56:25.418Z,1464.00
2018-02-27T11:57:30.923Z,1504.00
2018-02-27T11:58:36.422Z,1564.00
2018-02-27T11:59:41.927Z,1548.00
2018-02-27T12:00:47.432Z,1152.00
2018-02-27T12:01:52.940Z,964.00
2018-02-27T12:02:58.458Z,1352.00
2018-02-27T12:04:03.935Z,1012.00
2018-02-27T12:05:09.450Z,1636.00
2018-02-27T12:06:14.954Z,960.00
2018-02-27T12:07:20.448Z,1060.00
2018-02-27T12:08:25.947Z,1540.00
2018-02-27T12:09:31.474Z,1584.00
2018-02-27T12:10:36.961Z,1464.00
2018-02-27T12:11:42.466Z,1264.00
2018-02-27T12:12:47.961Z,1684.00
2018-02-27T12:13:53.465Z,1276.00
2018-02-27T12:14:59.061Z,1736.00
2018-02-27T12:16:04.472Z,1572.00
2018-02-27T12:17:09.978Z,1900.00
2018-02-27T12:18:15.477Z,2104.00
2018-02-27T12:19:20.989Z,2000.00
2018-02-27T12:20:26.491Z,1976.00
2018-02-27T12:21:31.990Z,2048.00
2018-02-27T12:22:37.523Z,2008.00
2018-02-27T12:23:42.997Z,2100.00
2018-02-27T12:24:48.526Z,2028.00
2018-02-27T12:25:54.006Z,2168.00
2018-02-27T12:26:59.519Z,2228.00
2018-02-27T12:28:05.013Z,2424.00
2018-02-27T12:29:10.521Z,2212.00
2018-02-27T12:30:16.027Z,2396.00
2018-02-27T12:31:21.534Z,2076.00
2018-02-27T12:32:27.032Z,1800.00
2018-02-27T12:33:32.564Z,2060.00
2018-02-27T12:34:38.039Z,848.00
2018-02-27T12:35:43.553Z,2712.00
2018-02-27T12:36:49.065Z,2444.00
2018-02-27T12:37:54.552Z,3004.00
2018-02-27T12:39:00.065Z,3260.00
2018-02-27T12:40:05.565Z,3212.00
2018-02-27T12:41:11.075Z,3124.00
2018-02-27T12:42:16.569Z,3464.00
2018-02-27T12:43:22.077Z,2584.00
2018-02-27T12:44:27.599Z,32512.00
2018-02-27T12:45:33.093Z,44160.00
2018-02-27T12:46:38.603Z,11616.00
2018-02-27T12:47:44.105Z,2244.00
2018-02-27T12:48:49.623Z,47136.00
2018-02-27T12:49:55.187Z,45856.00
2018-02-27T12:51:00.623Z,45728.00
2018-02-27T12:52:06.166Z,45440.00
2018-02-27T12:53:11.646Z,45408.00
2018-02-27T12:54:17.148Z,43136.00
2018-02-27T12:55:22.659Z,44064.00
2018-02-27T12:56:28.170Z,40864.00
2018-02-27T12:57:33.672Z,42208.00
2018-02-27T12:58:39.182Z,24928.00
2018-02-27T12:59:44.693Z,8576.00
2018-02-27T13:00:50.251Z,2716.00
2018-02-27T13:01:55.726Z,1452.00
2018-02-27T13:03:01.331Z,1428.00
2018-02-27T13:04:06.753Z,2132.00
2018-02-27T13:05:12.259Z,12712.00
2018-02-27T13:06:17.764Z,13420.00
2018-02-27T13:07:23.283Z,8452.00
2018-02-27T13:08:28.812Z,9860.00
2018-02-27T13:09:34.334Z,5056.00
2018-02-27T13:10:39.815Z,828.00
2018-02-27T13:11:45.339Z,872.00
2018-02-27T13:12:50.843Z,812.00
2018-02-27T13:13:56.358Z,3376.00
2018-02-27T13:15:01.866Z,4844.00
2018-02-27T13:16:07.385Z,788.00
2018-02-27T13:17:12.890Z,932.00
2018-02-27T13:18:18.394Z,828.00
2018-02-27T13:19:23.905Z,852.00
2018-02-27T13:20:29.437Z,884.00
2018-02-27T13:21:34.922Z,1140.00
2018-02-27T13:22:40.434Z,1764.00
2018-02-27T13:23:45.939Z,1464.00
2018-02-27T13:24:51.455Z,1660.00
2018-02-27T13:25:57.132Z,2348.00
2018-02-27T13:27:02.511Z,1824.00
2018-02-27T13:28:07.974Z,1260.00
2018-02-27T13:29:13.485Z,1660.00
2018-02-27T13:30:19.000Z,3856.00
2018-02-27T13:31:24.499Z,14560.00
2018-02-27T13:32:30.027Z,2420.00
2018-02-27T13:33:35.511Z,3804.00
2018-02-27T13:34:41.023Z,2236.00
2018-02-27T13:35:46.689Z,1612.00
2018-02-27T13:36:52.036Z,1476.00
2018-02-27T13:37:57.545Z,2296.00
2018-02-27T13:39:03.072Z,1288.00
2018-02-27T13:40:08.555Z,1292.00
2018-02-27T13:41:14.063Z,1576.00
2018-02-27T13:42:19.574Z,5964.00
2018-02-27T13:43:25.128Z,3572.00
2018-02-27T13:44:30.589Z,1952.00
2018-02-27T13:45:36.082Z,16672.00
2018-02-27T13:46:41.617Z,2700.00
2018-02-27T13:47:47.104Z,17856.00
2018-02-27T13:48:52.611Z,17856.00
2018-02-27T13:49:58.105Z,17248.00
2018-02-27T13:51:03.611Z,14336.00
2018-02-27T13:52:09.206Z,13740.00
2018-02-27T13:53:14.678Z,16480.00
2018-02-27T13:54:20.136Z,16288.00
2018-02-27T13:55:25.660Z,15872.00